Time;durP1;ratioP1;P1;durP2;ratioP2;P2;SDS_P1;SDS_P2;PMS_P1;PMS_P2;Temp;Humidity;BMP_temperature;BMP_pressure;BME280_temperature;BME280_humidity;BME280_pressure;Samples;Min_cycle;Max_cycle;Signal;HPM_P1;HPM_P2
2021/01/03 00:00:59;;;;;;;238.30;126.47;;;;;;;;;;5073763;28;20215;-81
2021/01/03 00:03:25;;;;;;;160.13;90.13;;;;;;;;;;5073853;28;20230;-81
2021/01/03 00:05:50;;;;;;;147.80;84.03;;;;;;;;;;5073958;28;20170;-81
2021/01/03 00:08:16;;;;;;;115.07;68.77;;;;;;;;;;5073786;28;20686;-82
2021/01/03 00:10:41;;;;;;;117.07;66.83;;;;;;;;;;5073684;28;20198;-81
2021/01/03 00:13:07;;;;;;;108.97;61.80;;;;;;;;;;5074100;28;20558;-81
2021/01/03 00:15:32;;;;;;;105.73;61.40;;;;;;;;;;5073697;28;20169;-81
2021/01/03 00:17:57;;;;;;;110.83;63.70;;;;;;;;;;5073808;28;20171;-81
2021/01/03 00:20:25;;;;;;;119.90;64.60;;;;;;;;;;5073846;28;20195;-81
2021/01/03 00:22:51;;;;;;;128.13;73.20;;;;;;;;;;5073528;28;20201;-81
2021/01/03 00:25:18;;;;;;;128.20;72.40;;;;;;;;;;5073798;28;20171;-81
2021/01/03 00:27:45;;;;;;;129.60;71.03;;;;;;;;;;5073712;28;20171;-81
2021/01/03 00:30:11;;;;;;;103.00;58.50;;;;;;;;;;5073372;28;20179;-81
2021/01/03 00:32:37;;;;;;;83.77;50.10;;;;;;;;;;5073903;28;20232;-81
2021/01/03 00:35:04;;;;;;;77.43;46.83;;;;;;;;;;5073309;28;20175;-81
2021/01/03 00:37:29;;;;;;;82.90;48.47;;;;;;;;;;5073295;28;20175;-81
2021/01/03 00:39:54;;;;;;;79.60;46.77;;;;;;;;;;5073117;28;20198;-81
2021/01/03 00:42:20;;;;;;;77.20;45.97;;;;;;;;;;5073110;28;20179;-81
2021/01/03 00:44:45;;;;;;;90.80;52.87;;;;;;;;;;5073057;28;20625;-81
2021/01/03 00:47:11;;;;;;;192.37;97.40;;;;;;;;;;5073383;28;20167;-81
2021/01/03 00:49:36;;;;;;;135.30;71.37;;;;;;;;;;5073155;28;20179;-81
2021/01/03 00:52:02;;;;;;;95.13;53.50;;;;;;;;;;5073278;28;20202;-81
2021/01/03 00:54:27;;;;;;;86.57;50.50;;;;;;;;;;5073367;28;20258;-81
2021/01/03 00:56:53;;;;;;;94.93;55.20;;;;;;;;;;5073008;28;20175;-81
2021/01/03 00:59:19;;;;;;;73.43;44.90;;;;;;;;;;5072932;28;20684;-81
2021/01/03 01:01:44;;;;;;;75.97;44.47;;;;;;;;;;5055202;28;20190;-81
2021/01/03 01:04:09;;;;;;;79.87;48.73;;;;;;;;;;5072648;28;20222;-81
2021/01/03 01:06:35;;;;;;;90.70;53.00;;;;;;;;;;5072738;28;20179;-81
2021/01/03 01:09:00;;;;;;;68.90;41.43;;;;;;;;;;5072543;28;20174;-81
2021/01/03 01:11:25;;;;;;;74.10;43.00;;;;;;;;;;5072599;28;20182;-81
2021/01/03 01:13:51;;;;;;;69.37;42.93;;;;;;;;;;5072890;28;20633;-81
2021/01/03 01:16:16;;;;;;;68.77;43.03;;;;;;;;;;5072716;28;20602;-81
2021/01/03 01:18:41;;;;;;;67.47;39.53;;;;;;;;;;5096006;28;20159;-83
2021/01/03 01:21:07;;;;;;;64.50;39.33;;;;;;;;;;5090542;28;20223;-81
2021/01/03 01:23:32;;;;;;;73.70;41.77;;;;;;;;;;5087209;28;20175;-81
2021/01/03 01:25:58;;;;;;;63.60;39.83;;;;;;;;;;5086758;28;20289;-80
2021/01/03 01:28:23;;;;;;;66.67;39.60;;;;;;;;;;5075464;28;20164;-81
2021/01/03 01:30:48;;;;;;;68.10;41.03;;;;;;;;;;5073601;28;20167;-81
2021/01/03 01:33:14;;;;;;;69.37;40.83;;;;;;;;;;5072830;28;20563;-81
2021/01/03 01:35:39;;;;;;;63.57;41.00;;;;;;;;;;5072773;28;20171;-81
2021/01/03 01:38:04;;;;;;;71.63;41.63;;;;;;;;;;5072602;28;20163;-81
2021/01/03 01:40:32;;;;;;;58.27;37.13;;;;;;;;;;5072669;28;20195;-82
2021/01/03 01:42:59;;;;;;;70.13;40.87;;;;;;;;;;5072911;28;20172;-81
2021/01/03 01:45:27;;;;;;;76.63;45.40;;;;;;;;;;5072659;28;20174;-81
2021/01/03 01:47:55;;;;;;;134.73;78.50;;;;;;;;;;5072361;28;20174;-82
2021/01/03 01:50:23;;;;;;;141.23;83.57;;;;;;;;;;5072282;28;20600;-81
2021/01/03 01:52:50;;;;;;;111.47;63.23;;;;;;;;;;5072876;28;20194;-81
2021/01/03 01:55:19;;;;;;;147.87;86.53;;;;;;;;;;5072161;28;20174;-82
2021/01/03 01:57:56;;;;;;;170.00;99.73;;;;;;;;;;5072581;28;20167;-81
2021/01/03 02:00:26;;;;;;;100.07;57.53;;;;;;;;;;5072551;28;20194;-82
2021/01/03 02:02:54;;;;;;;74.87;45.03;;;;;;;;;;5072396;28;20171;-82
2021/01/03 02:05:31;;;;;;;58.33;36.10;;;;;;;;;;5072525;28;20163;-82
2021/01/03 02:08:15;;;;;;;61.63;37.03;;;;;;;;;;5054412;28;20504;-82
2021/01/03 02:10:43;;;;;;;71.53;43.87;;;;;;;;;;5072379;28;20191;-81
2021/01/03 02:13:11;;;;;;;94.07;52.97;;;;;;;;;;5072135;28;20190;-82
2021/01/03 02:15:37;;;;;;;71.10;42.00;;;;;;;;;;5072325;28;20216;-82
2021/01/03 02:18:04;;;;;;;75.00;44.37;;;;;;;;;;5072091;28;20175;-82
2021/01/03 02:20:35;;;;;;;75.00;44.27;;;;;;;;;;5072569;28;20295;-82
2021/01/03 02:23:04;;;;;;;58.43;37.93;;;;;;;;;;5076202;28;20163;-82
2021/01/03 02:25:29;;;;;;;64.07;39.33;;;;;;;;;;5075869;28;20555;-82
2021/01/03 02:28:04;;;;;;;62.63;38.50;;;;;;;;;;5075695;28;20175;-82
2021/01/03 02:30:30;;;;;;;65.83;37.67;;;;;;;;;;5075680;28;20255;-82
2021/01/03 02:33:07;;;;;;;66.80;39.43;;;;;;;;;;5075748;28;20167;-82
2021/01/03 02:35:32;;;;;;;108.87;56.77;;;;;;;;;;5075657;28;20625;-82
2021/01/03 02:37:58;;;;;;;156.40;76.80;;;;;;;;;;5075851;28;20171;-82
2021/01/03 02:40:24;;;;;;;120.80;61.43;;;;;;;;;;5075549;28;20264;-82
2021/01/03 02:42:50;;;;;;;127.93;67.00;;;;;;;;;;5075479;28;20630;-82
2021/01/03 02:45:18;;;;;;;90.13;49.67;;;;;;;;;;5075440;28;20237;-82
2021/01/03 02:47:44;;;;;;;80.10;44.53;;;;;;;;;;5075906;28;20224;-81
2021/01/03 02:50:11;;;;;;;77.80;45.43;;;;;;;;;;5075944;28;20179;-81
2021/01/03 02:52:38;;;;;;;71.37;42.67;;;;;;;;;;5077099;28;20548;-81
2021/01/03 02:55:05;;;;;;;72.53;42.20;;;;;;;;;;5076236;28;20175;-81
2021/01/03 02:57:30;;;;;;;60.33;36.83;;;;;;;;;;5076672;28;20257;-81
2021/01/03 02:59:55;;;;;;;103.53;53.63;;;;;;;;;;5076536;28;20191;-81
2021/01/03 03:02:21;;;;;;;69.50;41.80;;;;;;;;;;5076326;28;20252;-81
2021/01/03 03:04:46;;;;;;;67.57;41.30;;;;;;;;;;5076784;28;20219;-81
2021/01/03 03:07:11;;;;;;;154.47;70.20;;;;;;;;;;5076257;28;20174;-81
2021/01/03 03:09:37;;;;;;;75.13;40.77;;;;;;;;;;5076528;28;20289;-81
2021/01/03 03:12:02;;;;;;;69.07;40.90;;;;;;;;;;5076135;28;20195;-81
2021/01/03 03:14:27;;;;;;;145.70;67.30;;;;;;;;;;5076063;28;20175;-81
2021/01/03 03:16:56;;;;;;;93.20;48.37;;;;;;;;;;5076099;28;20171;-81
2021/01/03 03:19:22;;;;;;;71.37;40.17;;;;;;;;;;5075936;28;20241;-81
2021/01/03 03:21:49;;;;;;;75.80;42.03;;;;;;;;;;5076014;28;20203;-81
2021/01/03 03:24:14;;;;;;;58.23;36.00;;;;;;;;;;5076340;28;20179;-81
2021/01/03 03:26:39;;;;;;;66.63;40.07;;;;;;;;;;5076256;28;20637;-81
2021/01/03 03:29:05;;;;;;;163.67;67.17;;;;;;;;;;5075601;28;20167;-81
2021/01/03 03:31:31;;;;;;;142.03;62.20;;;;;;;;;;5076298;28;20182;-81
2021/01/03 03:33:56;;;;;;;172.97;71.80;;;;;;;;;;5074767;28;20171;-81
2021/01/03 03:36:22;;;;;;;301.93;116.50;;;;;;;;;;5075951;28;20223;-81
2021/01/03 03:38:47;;;;;;;81.87;43.60;;;;;;;;;;5075602;28;20172;-82
2021/01/03 03:41:17;;;;;;;157.30;71.50;;;;;;;;;;5075516;28;20194;-82
2021/01/03 03:43:42;;;;;;;94.37;47.90;;;;;;;;;;5075839;28;20190;-82
2021/01/03 03:46:08;;;;;;;78.43;46.47;;;;;;;;;;5075566;28;20171;-80
2021/01/03 03:48:33;;;;;;;87.60;55.43;;;;;;;;;;5097358;28;20190;-81
2021/01/03 03:50:59;;;;;;;85.90;56.70;;;;;;;;;;5100152;28;20175;-82
2021/01/03 03:53:24;;;;;;;71.60;44.93;;;;;;;;;;5092986;28;20178;-82
2021/01/03 03:55:49;;;;;;;81.90;50.97;;;;;;;;;;5089226;28;20163;-82
2021/01/03 03:58:15;;;;;;;72.63;47.00;;;;;;;;;;5079730;28;20225;-82
2021/01/03 04:00:40;;;;;;;69.73;46.07;;;;;;;;;;5075161;28;20205;-82
2021/01/03 04:03:05;;;;;;;77.30;48.97;;;;;;;;;;5075032;28;20175;-82
2021/01/03 04:05:30;;;;;;;69.00;42.80;;;;;;;;;;5075522;28;20175;-82
2021/01/03 04:07:56;;;;;;;74.10;46.37;;;;;;;;;;5075111;28;20551;-81
2021/01/03 04:10:21;;;;;;;66.37;42.90;;;;;;;;;;5075275;28;20529;-82
2021/01/03 04:12:47;;;;;;;63.10;39.60;;;;;;;;;;5075036;28;20632;-82
2021/01/03 04:15:14;;;;;;;67.13;42.30;;;;;;;;;;5074962;28;20175;-82
2021/01/03 04:17:39;;;;;;;63.60;40.70;;;;;;;;;;5074955;28;20179;-81
2021/01/03 04:20:06;;;;;;;58.90;38.73;;;;;;;;;;5074910;28;20203;-81
2021/01/03 04:22:31;;;;;;;53.70;36.60;;;;;;;;;;5074822;28;20187;-81
2021/01/03 04:24:57;;;;;;;60.60;39.63;;;;;;;;;;5074674;28;20168;-81
2021/01/03 04:27:23;;;;;;;60.50;38.70;;;;;;;;;;5074785;28;20178;-82
2021/01/03 04:29:48;;;;;;;60.07;37.63;;;;;;;;;;5074606;28;20175;-82
2021/01/03 04:32:13;;;;;;;55.40;36.87;;;;;;;;;;5074613;28;20173;-82
2021/01/03 04:34:40;;;;;;;59.07;39.40;;;;;;;;;;5074589;28;20171;-82
2021/01/03 04:37:06;;;;;;;56.67;37.00;;;;;;;;;;5074448;28;20183;-81
2021/01/03 04:39:32;;;;;;;57.93;37.73;;;;;;;;;;5074478;28;20285;-82
2021/01/03 04:42:13;;;;;;;69.67;41.13;;;;;;;;;;5056747;28;20187;-82
2021/01/03 04:44:48;;;;;;;89.83;49.20;;;;;;;;;;5074511;28;20544;-81
2021/01/03 04:47:13;;;;;;;157.97;84.33;;;;;;;;;;5074050;28;20171;-82
2021/01/03 04:49:46;;;;;;;117.70;64.23;;;;;;;;;;5074808;28;20182;-81
2021/01/03 04:52:12;;;;;;;71.63;42.97;;;;;;;;;;5074628;28;20592;-82
2021/01/03 04:54:48;;;;;;;64.37;38.27;;;;;;;;;;5073999;28;20265;-81
2021/01/03 04:57:17;;;;;;;55.00;36.07;;;;;;;;;;5074803;28;20629;-81
2021/01/03 04:59:50;;;;;;;47.60;30.00;;;;;;;;;;5073771;28;20255;-81
2021/01/03 05:02:16;;;;;;;45.90;30.40;;;;;;;;;;5056961;28;20520;-81
2021/01/03 05:04:43;;;;;;;48.80;31.80;;;;;;;;;;5074032;28;20230;-81
2021/01/03 05:07:12;;;;;;;55.53;38.57;;;;;;;;;;5074203;28;20174;-82
2021/01/03 05:09:37;;;;;;;75.80;48.33;;;;;;;;;;5074055;28;20186;-82
2021/01/03 05:12:21;;;;;;;97.10;49.50;;;;;;;;;;5074150;28;20191;-82
2021/01/03 05:14:52;;;;;;;72.10;38.63;;;;;;;;;;5073928;28;20493;-82
2021/01/03 05:17:18;;;;;;;57.53;33.67;;;;;;;;;;5074509;28;20257;-82
2021/01/03 05:19:43;;;;;;;60.33;35.07;;;;;;;;;;5073753;28;20282;-82
2021/01/03 05:22:08;;;;;;;53.53;33.73;;;;;;;;;;5074094;28;20180;-82
2021/01/03 05:24:44;;;;;;;59.13;35.80;;;;;;;;;;5074086;28;20174;-82
2021/01/03 05:27:16;;;;;;;58.40;36.87;;;;;;;;;;5073808;28;20580;-81
2021/01/03 05:29:42;;;;;;;55.13;34.90;;;;;;;;;;5074034;28;20567;-81
2021/01/03 05:32:08;;;;;;;55.17;33.07;;;;;;;;;;5074034;28;20177;-81
2021/01/03 05:34:35;;;;;;;77.17;42.23;;;;;;;;;;5055947;28;20175;-81
2021/01/03 05:37:06;;;;;;;75.00;42.03;;;;;;;;;;5073656;28;20576;-81
2021/01/03 05:39:33;;;;;;;72.67;41.57;;;;;;;;;;5073908;28;20198;-81
2021/01/03 05:42:05;;;;;;;75.73;40.93;;;;;;;;;;5055658;28;20222;-81
2021/01/03 05:44:33;;;;;;;72.30;40.37;;;;;;;;;;5073599;28;20179;-81
2021/01/03 05:47:02;;;;;;;66.93;37.90;;;;;;;;;;5055700;28;20174;-81
2021/01/03 05:49:28;;;;;;;71.53;39.37;;;;;;;;;;5073756;28;20190;-81
2021/01/03 05:52:25;;;;;;;81.47;40.83;;;;;;;;;;5074040;28;20175;-82
2021/01/03 05:54:52;;;;;;;129.73;56.43;;;;;;;;;;5018588;28;20183;-82
2021/01/03 05:57:20;;;;;;;100.00;49.57;;;;;;;;;;5077269;28;20273;-84
2021/01/03 05:59:46;;;;;;;95.43;46.27;;;;;;;;;;5077751;28;20665;-83
2021/01/03 06:02:12;;;;;;;50.80;31.57;;;;;;;;;;5078209;28;20179;-82
2021/01/03 06:04:37;;;;;;;71.77;40.30;;;;;;;;;;5077078;28;20546;-83
2021/01/03 06:07:03;;;;;;;70.77;39.77;;;;;;;;;;5077489;28;20206;-83
2021/01/03 06:09:36;;;;;;;51.17;31.97;;;;;;;;;;5077267;28;20254;-82
2021/01/03 06:12:18;;;;;;;45.90;28.70;;;;;;;;;;5077654;28;20195;-82
2021/01/03 06:14:46;;;;;;;51.30;31.93;;;;;;;;;;5077386;28;20175;-82
2021/01/03 06:17:14;;;;;;;40.03;26.10;;;;;;;;;;5077180;28;20614;-82
2021/01/03 06:19:49;;;;;;;41.97;28.77;;;;;;;;;;5077139;28;20661;-83
2021/01/03 06:22:32;;;;;;;37.43;22.87;;;;;;;;;;5077406;28;20167;-83
2021/01/03 06:24:58;;;;;;;39.23;25.53;;;;;;;;;;5077237;28;20581;-83
2021/01/03 06:27:30;;;;;;;39.47;26.33;;;;;;;;;;5077027;28;20171;-83
2021/01/03 06:30:01;;;;;;;43.37;26.63;;;;;;;;;;5076657;28;20541;-82
2021/01/03 06:32:45;;;;;;;44.57;28.40;;;;;;;;;;5077038;28;20156;-83
2021/01/03 06:35:29;;;;;;;43.70;27.90;;;;;;;;;;5076640;28;20178;-83
2021/01/03 06:37:55;;;;;;;43.60;27.43;;;;;;;;;;5076907;28;20175;-83
2021/01/03 06:40:38;;;;;;;43.83;28.43;;;;;;;;;;5076787;28;20202;-83
2021/01/03 06:43:14;;;;;;;47.03;30.67;;;;;;;;;;5076455;28;20232;-82
2021/01/03 06:45:58;;;;;;;51.50;31.47;;;;;;;;;;5077047;28;20203;-83
2021/01/03 06:48:23;;;;;;;51.10;32.77;;;;;;;;;;5077000;28;20600;-83
2021/01/03 06:50:56;;;;;;;50.47;30.23;;;;;;;;;;5076344;28;20182;-83
2021/01/03 06:53:21;;;;;;;54.00;33.27;;;;;;;;;;5076941;28;20672;-83
2021/01/03 06:55:58;;;;;;;59.17;32.70;;;;;;;;;;5076537;28;20195;-83
2021/01/03 06:58:35;;;;;;;73.77;38.83;;;;;;;;;;5076749;28;20171;-82
2021/01/03 07:01:10;;;;;;;152.00;60.90;;;;;;;;;;5076289;28;20198;-83
2021/01/03 07:03:35;;;;;;;77.17;40.40;;;;;;;;;;5076432;28;20245;-83
2021/01/03 07:06:03;;;;;;;81.67;41.10;;;;;;;;;;5076120;28;20510;-83
2021/01/03 07:08:30;;;;;;;90.67;46.53;;;;;;;;;;5076005;28;20178;-83
2021/01/03 07:10:55;;;;;;;68.70;40.40;;;;;;;;;;5076095;28;20191;-83
2021/01/03 07:13:23;;;;;;;157.67;71.67;;;;;;;;;;5076482;28;20193;-83
2021/01/03 07:15:49;;;;;;;85.60;43.33;;;;;;;;;;5076205;28;20171;-83
2021/01/03 07:18:26;;;;;;;86.67;40.60;;;;;;;;;;5075855;28;20167;-83
2021/01/03 07:21:04;;;;;;;112.57;49.87;;;;;;;;;;5075714;28;20191;-83
2021/01/03 07:23:31;;;;;;;158.30;70.20;;;;;;;;;;5072994;28;20176;-83
2021/01/03 07:26:15;;;;;;;110.37;56.83;;;;;;;;;;5065847;28;20177;-83
2021/01/03 07:28:45;;;;;;;108.67;59.07;;;;;;;;;;5065114;28;20175;-83
2021/01/03 07:31:29;;;;;;;81.17;44.13;;;;;;;;;;5046386;28;20172;-83
2021/01/03 07:34:02;;;;;;;61.00;37.47;;;;;;;;;;5064265;28;20222;-83
2021/01/03 07:36:34;;;;;;;76.90;43.07;;;;;;;;;;5064334;28;20163;-83
2021/01/03 07:39:07;;;;;;;79.20;45.20;;;;;;;;;;5070369;28;20606;-82
2021/01/03 07:41:32;;;;;;;77.17;45.57;;;;;;;;;;5075475;28;20277;-82
2021/01/03 07:44:08;;;;;;;94.87;56.50;;;;;;;;;;5075331;28;20191;-83
2021/01/03 07:46:46;;;;;;;98.67;54.03;;;;;;;;;;5074194;28;20198;-82
2021/01/03 07:49:30;;;;;;;94.93;50.87;;;;;;;;;;5071036;28;20175;-82
2021/01/03 07:51:56;;;;;;;109.77;61.10;;;;;;;;;;5087462;28;20167;-82
2021/01/03 07:54:22;;;;;;;84.33;52.73;;;;;;;;;;5095731;28;20166;-82
2021/01/03 07:56:47;;;;;;;74.77;48.40;;;;;;;;;;5077180;28;20177;-83
2021/01/03 07:59:13;;;;;;;73.37;49.10;;;;;;;;;;5090600;28;20723;-83
2021/01/03 08:01:48;;;;;;;98.53;57.13;;;;;;;;;;5094328;28;20178;-82
2021/01/03 08:04:25;;;;;;;82.50;52.47;;;;;;;;;;5094886;28;20226;-82
2021/01/03 08:06:51;;;;;;;103.97;59.60;;;;;;;;;;5095280;28;20166;-82
2021/01/03 08:09:25;;;;;;;98.10;61.10;;;;;;;;;;5094927;28;20969;-82
2021/01/03 08:11:53;;;;;;;106.27;60.93;;;;;;;;;;5095276;28;20201;-82
2021/01/03 08:14:27;;;;;;;146.10;86.50;;;;;;;;;;5094969;28;20173;-82
2021/01/03 08:16:57;;;;;;;113.13;61.63;;;;;;;;;;5095558;28;20163;-82
2021/01/03 08:19:23;;;;;;;81.03;47.53;;;;;;;;;;5087996;28;20265;-82
2021/01/03 08:21:54;;;;;;;69.20;44.23;;;;;;;;;;5075124;28;20669;-82
2021/01/03 08:24:19;;;;;;;75.53;46.70;;;;;;;;;;5074832;28;20164;-82
2021/01/03 08:26:46;;;;;;;80.13;50.63;;;;;;;;;;5074646;28;20270;-82
2021/01/03 08:29:17;;;;;;;57.83;35.13;;;;;;;;;;5074261;28;20167;-82
2021/01/03 08:31:49;;;;;;;65.20;42.30;;;;;;;;;;5074674;28;20650;-82
2021/01/03 08:34:16;;;;;;;96.67;52.23;;;;;;;;;;5074588;28;20155;-82
2021/01/03 08:36:42;;;;;;;164.13;75.67;;;;;;;;;;5074127;28;20333;-82
2021/01/03 08:39:09;;;;;;;122.53;60.87;;;;;;;;;;5074145;28;20174;-82
2021/01/03 08:41:36;;;;;;;113.00;56.73;;;;;;;;;;5074134;28;20262;-82
2021/01/03 08:44:03;;;;;;;109.47;53.20;;;;;;;;;;5072780;28;20171;-82
2021/01/03 08:46:29;;;;;;;61.43;36.80;;;;;;;;;;5073820;28;20229;-82
2021/01/03 08:49:03;;;;;;;69.23;42.30;;;;;;;;;;5074189;28;20170;-82
2021/01/03 08:51:28;;;;;;;69.23;41.80;;;;;;;;;;5074306;28;20174;-82
2021/01/03 08:54:00;;;;;;;54.13;36.77;;;;;;;;;;5074165;28;20167;-82
2021/01/03 08:56:28;;;;;;;45.27;30.30;;;;;;;;;;5074083;28;20249;-82
2021/01/03 08:58:54;;;;;;;44.20;27.90;;;;;;;;;;5079473;28;20178;-82
2021/01/03 09:01:28;;;;;;;44.43;29.53;;;;;;;;;;5073583;28;20229;-82
2021/01/03 09:03:56;;;;;;;36.17;25.83;;;;;;;;;;5073483;28;20226;-82
2021/01/03 09:06:22;;;;;;;39.80;26.03;;;;;;;;;;5073978;28;20183;-82
2021/01/03 09:08:48;;;;;;;40.90;26.87;;;;;;;;;;5073585;28;20179;-82
2021/01/03 09:11:15;;;;;;;39.63;25.17;;;;;;;;;;5073917;28;20186;-82
2021/01/03 09:13:45;;;;;;;35.30;22.93;;;;;;;;;;5073235;28;20171;-82
2021/01/03 09:16:20;;;;;;;44.73;26.07;;;;;;;;;;5072375;28;20622;-82
2021/01/03 09:19:02;;;;;;;56.67;32.33;;;;;;;;;;5072083;28;20155;-82
2021/01/03 09:21:27;;;;;;;42.47;27.20;;;;;;;;;;5072230;28;20210;-82
2021/01/03 09:24:03;;;;;;;37.90;25.73;;;;;;;;;;5072298;28;20189;-82
2021/01/03 09:26:37;;;;;;;40.20;28.53;;;;;;;;;;5072244;28;20170;-82
2021/01/03 09:29:14;;;;;;;43.83;29.03;;;;;;;;;;5072100;28;20246;-82
2021/01/03 09:31:54;;;;;;;42.30;28.40;;;;;;;;;;5070898;28;20163;-82
2021/01/03 09:34:26;;;;;;;45.37;31.53;;;;;;;;;;5071683;28;20155;-82
2021/01/03 09:36:54;;;;;;;49.60;31.90;;;;;;;;;;5071831;28;20170;-82
2021/01/03 09:39:19;;;;;;;43.20;28.63;;;;;;;;;;5071596;28;20163;-82
2021/01/03 09:41:54;;;;;;;43.93;28.60;;;;;;;;;;5071735;28;20168;-82
2021/01/03 09:44:38;;;;;;;35.17;21.07;;;;;;;;;;5071848;28;20159;-82
2021/01/03 09:47:09;;;;;;;38.07;26.40;;;;;;;;;;5072042;28;20621;-82
2021/01/03 09:49:52;;;;;;;40.83;29.30;;;;;;;;;;5071350;28;20262;-82
2021/01/03 09:52:21;;;;;;;43.27;29.60;;;;;;;;;;5071631;28;20254;-83
2021/01/03 09:54:49;;;;;;;45.17;29.93;;;;;;;;;;5071819;28;20205;-82
2021/01/03 09:57:28;;;;;;;50.73;32.17;;;;;;;;;;5071570;28;20174;-83
2021/01/03 09:59:57;;;;;;;51.27;31.87;;;;;;;;;;5071664;28;20217;-82
2021/01/03 10:02:23;;;;;;;48.70;29.17;;;;;;;;;;5071602;28;20441;-83
2021/01/03 10:04:48;;;;;;;42.47;27.50;;;;;;;;;;5071098;28;20235;-83
2021/01/03 10:07:15;;;;;;;46.90;31.13;;;;;;;;;;5071710;28;20596;-83
2021/01/03 10:09:50;;;;;;;42.80;28.97;;;;;;;;;;5071724;28;20183;-83
2021/01/03 10:12:19;;;;;;;49.33;32.90;;;;;;;;;;5071382;28;20187;-82
2021/01/03 10:14:45;;;;;;;47.20;32.43;;;;;;;;;;5071455;28;20172;-82
2021/01/03 10:17:18;;;;;;;52.63;32.70;;;;;;;;;;5071470;28;20182;-82
2021/01/03 10:19:43;;;;;;;46.07;29.30;;;;;;;;;;5053535;28;20593;-82
2021/01/03 10:22:27;;;;;;;46.73;31.50;;;;;;;;;;5071550;28;20244;-82
2021/01/03 10:24:56;;;;;;;47.50;33.07;;;;;;;;;;5071650;28;20185;-82
2021/01/03 10:27:23;;;;;;;41.67;28.27;;;;;;;;;;5071314;28;20217;-83
2021/01/03 10:29:48;;;;;;;43.50;29.73;;;;;;;;;;5071283;28;20186;-82
2021/01/03 10:32:14;;;;;;;42.20;27.93;;;;;;;;;;5070545;28;20175;-83
2021/01/03 10:34:39;;;;;;;40.53;27.17;;;;;;;;;;5058884;28;20167;-83
2021/01/03 10:37:05;;;;;;;33.50;19.60;;;;;;;;;;5064413;28;20202;-83
2021/01/03 10:39:31;;;;;;;40.33;27.67;;;;;;;;;;5050467;28;20172;-83
2021/01/03 10:41:57;;;;;;;38.10;25.80;;;;;;;;;;5061797;28;20645;-83
2021/01/03 10:44:22;;;;;;;43.70;28.40;;;;;;;;;;5074238;28;20175;-83
2021/01/03 10:46:48;;;;;;;38.60;26.77;;;;;;;;;;5074108;28;20174;-83
2021/01/03 10:49:14;;;;;;;38.07;25.13;;;;;;;;;;5073841;28;20171;-83
2021/01/03 10:51:40;;;;;;;36.37;24.50;;;;;;;;;;5054230;28;20188;-82
2021/01/03 10:54:07;;;;;;;37.60;24.43;;;;;;;;;;5054370;28;20237;-82
2021/01/03 10:56:32;;;;;;;52.17;34.17;;;;;;;;;;5054026;28;20195;-83
2021/01/03 10:58:58;;;;;;;40.23;28.90;;;;;;;;;;5036075;28;20180;-82
2021/01/03 11:01:23;;;;;;;37.03;26.17;;;;;;;;;;5053830;28;20261;-82
2021/01/03 11:03:49;;;;;;;49.13;34.10;;;;;;;;;;5054854;28;20255;-82
2021/01/03 11:06:15;;;;;;;39.77;27.90;;;;;;;;;;5055203;28;20167;-82
2021/01/03 11:08:40;;;;;;;63.73;36.73;;;;;;;;;;5055417;28;20182;-82
2021/01/03 11:11:06;;;;;;;59.53;38.10;;;;;;;;;;5037403;28;20199;-82
2021/01/03 11:13:32;;;;;;;37.40;27.00;;;;;;;;;;5054849;28;20689;-83
2021/01/03 11:15:57;;;;;;;36.50;25.37;;;;;;;;;;5037218;28;20673;-82
2021/01/03 11:18:23;;;;;;;42.93;28.20;;;;;;;;;;5054829;28;20756;-83
2021/01/03 11:20:48;;;;;;;47.20;30.13;;;;;;;;;;5054925;28;20207;-82
2021/01/03 11:23:13;;;;;;;41.47;25.70;;;;;;;;;;5055044;28;20217;-82
2021/01/03 11:25:39;;;;;;;37.03;23.57;;;;;;;;;;5054716;28;20176;-82
2021/01/03 11:28:04;;;;;;;52.53;32.47;;;;;;;;;;5054797;28;20225;-83
2021/01/03 11:30:30;;;;;;;46.43;32.43;;;;;;;;;;5054681;28;20198;-82
2021/01/03 11:32:55;;;;;;;56.13;34.40;;;;;;;;;;5020713;28;20178;-83
2021/01/03 11:35:20;;;;;;;50.97;35.00;;;;;;;;;;5054811;28;20164;-83
2021/01/03 11:37:49;;;;;;;57.73;39.60;;;;;;;;;;5054768;28;20172;-83
2021/01/03 11:40:14;;;;;;;58.57;37.60;;;;;;;;;;5054429;28;20199;-83
2021/01/03 11:42:40;;;;;;;57.13;37.00;;;;;;;;;;5054551;28;20226;-82
2021/01/03 11:45:06;;;;;;;48.70;31.87;;;;;;;;;;5054651;28;20164;-83
2021/01/03 11:47:32;;;;;;;46.80;31.27;;;;;;;;;;5054111;28;20267;-82
2021/01/03 11:49:57;;;;;;;39.10;25.77;;;;;;;;;;5054550;28;20259;-83
2021/01/03 11:52:26;;;;;;;36.00;26.10;;;;;;;;;;5054314;28;20604;-82
2021/01/03 11:54:51;;;;;;;66.20;43.87;;;;;;;;;;5053961;28;20190;-83
2021/01/03 11:57:17;;;;;;;43.47;28.33;;;;;;;;;;5054260;28;20713;-83
2021/01/03 11:59:42;;;;;;;46.33;32.00;;;;;;;;;;5054032;28;20195;-82
2021/01/03 12:02:09;;;;;;;68.83;43.43;;;;;;;;;;5043961;28;20552;-83
2021/01/03 12:04:36;;;;;;;38.57;24.57;;;;;;;;;;5054243;28;20997;-82
2021/01/03 12:07:03;;;;;;;34.13;22.40;;;;;;;;;;5072594;28;20171;-83
2021/01/03 12:09:29;;;;;;;37.27;24.60;;;;;;;;;;5072511;28;20269;-83
2021/01/03 12:11:58;;;;;;;34.10;22.37;;;;;;;;;;5072564;28;20672;-83
2021/01/03 12:14:24;;;;;;;33.13;21.00;;;;;;;;;;5072098;28;20182;-83
2021/01/03 12:16:53;;;;;;;34.87;24.60;;;;;;;;;;5072482;28;20186;-82
2021/01/03 12:19:19;;;;;;;35.03;23.33;;;;;;;;;;5072341;28;20642;-83
2021/01/03 12:21:44;;;;;;;40.47;26.93;;;;;;;;;;5072491;28;20202;-82
2021/01/03 12:24:09;;;;;;;37.57;23.43;;;;;;;;;;5072536;28;20486;-83
2021/01/03 12:26:36;;;;;;;47.30;29.97;;;;;;;;;;5072355;28;20527;-83
2021/01/03 12:29:01;;;;;;;52.47;32.70;;;;;;;;;;5072192;28;20652;-83
2021/01/03 12:31:37;;;;;;;37.77;23.57;;;;;;;;;;5072239;28;20171;-83
2021/01/03 12:34:03;;;;;;;54.10;33.87;;;;;;;;;;5072321;28;20175;-83
2021/01/03 12:36:29;;;;;;;37.67;25.97;;;;;;;;;;5072040;28;20228;-83
2021/01/03 12:38:54;;;;;;;43.00;28.43;;;;;;;;;;5071800;28;20268;-83
2021/01/03 12:41:21;;;;;;;39.67;24.40;;;;;;;;;;5071663;28;20672;-83
2021/01/03 12:43:47;;;;;;;41.30;25.60;;;;;;;;;;5071585;28;20453;-84
2021/01/03 12:46:12;;;;;;;41.23;26.40;;;;;;;;;;5071775;28;20182;-83
2021/01/03 12:48:38;;;;;;;38.53;26.63;;;;;;;;;;5071036;28;20644;-83
2021/01/03 12:51:03;;;;;;;60.63;34.97;;;;;;;;;;5073133;28;20635;-83
2021/01/03 12:53:29;;;;;;;50.80;33.43;;;;;;;;;;5073425;28;20253;-82
2021/01/03 12:55:54;;;;;;;55.37;32.40;;;;;;;;;;5070827;28;20240;-83
2021/01/03 12:58:19;;;;;;;46.17;27.73;;;;;;;;;;5055097;28;20218;-83
2021/01/03 13:00:45;;;;;;;55.60;33.63;;;;;;;;;;5072091;28;20568;-83
2021/01/03 13:03:10;;;;;;;60.07;36.00;;;;;;;;;;5073289;28;20174;-83
2021/01/03 13:05:35;;;;;;;53.60;33.47;;;;;;;;;;5073104;28;20264;-83
2021/01/03 13:08:01;;;;;;;53.80;31.67;;;;;;;;;;5073339;28;20163;-83
2021/01/03 13:10:26;;;;;;;48.67;31.37;;;;;;;;;;5072970;28;20205;-82
2021/01/03 13:12:51;;;;;;;136.70;56.83;;;;;;;;;;5073150;28;20449;-83
2021/01/03 13:15:17;;;;;;;113.53;59.50;;;;;;;;;;5073264;28;20185;-83
2021/01/03 13:17:42;;;;;;;61.37;35.63;;;;;;;;;;5073396;28;20259;-83
2021/01/03 13:20:08;;;;;;;94.73;53.73;;;;;;;;;;5072591;28;20289;-83
2021/01/03 13:22:33;;;;;;;55.93;34.87;;;;;;;;;;5072983;28;20171;-83
2021/01/03 13:24:58;;;;;;;52.77;34.50;;;;;;;;;;5072920;28;20163;-83
2021/01/03 13:27:24;;;;;;;62.30;39.00;;;;;;;;;;5072669;28;20175;-83
2021/01/03 13:29:49;;;;;;;51.50;33.47;;;;;;;;;;5072802;28;20175;-83
2021/01/03 13:32:14;;;;;;;54.93;34.30;;;;;;;;;;5072867;28;20181;-84
2021/01/03 13:34:40;;;;;;;53.90;34.40;;;;;;;;;;5072840;28;20175;-83
2021/01/03 13:37:05;;;;;;;60.00;36.60;;;;;;;;;;5072495;28;20167;-83
2021/01/03 13:39:30;;;;;;;141.57;67.00;;;;;;;;;;5070872;28;20216;-83
2021/01/03 13:41:56;;;;;;;93.50;50.87;;;;;;;;;;5071773;28;20217;-83
2021/01/03 13:44:21;;;;;;;65.03;37.43;;;;;;;;;;5070857;28;20710;-82
2021/01/03 13:46:54;;;;;;;57.93;36.30;;;;;;;;;;5068633;28;20171;-83
2021/01/03 13:49:19;;;;;;;62.20;38.27;;;;;;;;;;5085055;28;20644;-83
2021/01/03 13:51:46;;;;;;;72.03;45.13;;;;;;;;;;5089235;28;20171;-83
2021/01/03 13:54:11;;;;;;;70.20;43.87;;;;;;;;;;5089492;28;20651;-83
2021/01/03 13:56:38;;;;;;;85.03;49.90;;;;;;;;;;5072182;28;20175;-83
2021/01/03 13:59:03;;;;;;;59.60;36.27;;;;;;;;;;5089270;28;20271;-83
2021/01/03 14:01:29;;;;;;;63.73;37.90;;;;;;;;;;5089490;28;20886;-83
2021/01/03 14:03:55;;;;;;;56.47;38.27;;;;;;;;;;5069787;28;20321;-83
2021/01/03 14:06:20;;;;;;;55.67;36.43;;;;;;;;;;5078061;28;20273;-83
2021/01/03 14:08:45;;;;;;;91.37;52.90;;;;;;;;;;5090170;28;20577;-83
2021/01/03 14:11:17;;;;;;;52.83;36.43;;;;;;;;;;5088793;28;20269;-83
2021/01/03 14:13:42;;;;;;;57.90;37.10;;;;;;;;;;5090083;28;20167;-83
2021/01/03 14:16:07;;;;;;;56.63;34.27;;;;;;;;;;5088094;28;20197;-83
2021/01/03 14:18:33;;;;;;;56.90;35.73;;;;;;;;;;5090252;28;20290;-83
2021/01/03 14:20:58;;;;;;;56.97;35.60;;;;;;;;;;5071325;28;20657;-83